Sheldon Junction, Vermont
Current Conditions -  °F | °C
As of 4:55 AM on Wednesday 26 Nov 2014 (Local Time) from KFSO Reporting Station
Overcast Overcast  
Wind Chill: 31°   Ceiling: 3500
Heat Index: 35°   Visibility: 10mi
Dew Point: 23°   Wind: 5mph
Humidity: 62%   Direction: 270°W
Pressure: 30.21"   Gusts: NA
Location:  44.8776°N, 72.9201°W
Report Text: KFSO 260955Z AUTO 27004KT 10SM OVC035 02/M05 A3021 RMK AO2 T00161049
Loading
Personal Weather Stations






























Interactive Weather Map New forecast layout! Learn more

10-Day Weather Forecast

Advertisements
Track Severe Weather on mobile